White Mountain, AK

11:35 AM AKDT on July 07, 2015 (GMT -0800)
White Mountain | | Change Station
CLOSE
Current Station
Airport
Location: White Mountain,
Elevation: 266 ft
Nearby Weather Stations

Elev 266 ft 64.69 °N, 163.41 °W | Updated 4 minutes ago

Light Rain
Light Rain Mist
52 °F
Feels Like 52 °F
N
10
Wind Variable Wind from SSW

Today
High -- | Low -- °F
--% Chance of Precip.
Yesterday
High -- | Low -- °F
Precip. -- in
4:28 AM 1:25 AM
Waning Gibbous, 62% visible
Pressure 29.80 in
Visibility 2.0 miles
Clouds Mostly Cloudy 500 ft
Overcast 1100 ft
Dew Point 50 °F
Humidity 94%
Rainfall 0.09 in
Snow Depth Not available.
UV 1 out of 12
Pollen Not available.
Air Quality Not available.
Flu Activity Not available.
SPECI PAWM 071931Z AUTO 21009KT 2SM -RA BR BKN005 OVC011 11/10 A2980 RMK AO2 CIG 004V009 P0000

More Conditions Fewer Conditions

Pressure 29.80 in
Visibility 2.0 miles
Clouds Mostly Cloudy 500 ft
Overcast 1100 ft
Dew Point 50 °F
Humidity 94%
Rainfall 0.09 in
Snow Depth Not available.
UV 1 out of 12
Pollen Not available.
Air Quality Not available.
Flu Activity Not available.
SPECI PAWM 071931Z AUTO 21009KT 2SM -RA BR BKN005 OVC011 11/10 A2980 RMK AO2 CIG 004V009 P0000

More Conditions Fewer Conditions

10-Day Weather Forecast

×

Almanac

Astronomy

Jul. 07, 2015 Rise Set
Actual Time
Civil Twilight
Nautical Twilight
Astronomical Twilight
Moon
Length of Visible Light
Length of Day
Tomorrow will be .
, % of the Moon is Illuminated

Today's Extremes

State Highs State Lows

Community

WunderPhotos

Upload Photos

1,835,880 photos uploaded!

WunderBlogs® & News

Nearby

Air Quality

  Air Quality AQ Index Pollutant
Not available.

Snow Depth

Station Depth Elevation

Earthquake Activity

City Distance Mag. Time & Date
Minimum magnitude displayed is 2.5.

Coastal Water Temperatures

Place Temperature

Stations

Nearby Weather Stations

Station Location Temp. Windchill Dew Point Humidity Wind Precip. Elev Updated Type